sensor_id;sensor_type;location;lat;lon;timestamp;pressure;altitude;pressure_sealevel;temperature;humidity
65173;BME280;69059;52.218;5.172;2023-04-25T00:01:17;99499.78;;;6.67;100.00
65173;BME280;69059;52.218;5.172;2023-04-25T00:03:45;99513.50;;;6.61;100.00
65173;BME280;69059;52.218;5.172;2023-04-25T00:06:13;99503.00;;;6.69;100.00
65173;BME280;69059;52.218;5.172;2023-04-25T00:08:41;99487.00;;;6.65;100.00
65173;BME280;69059;52.218;5.172;2023-04-25T00:11:10;99497.50;;;6.78;100.00
65173;BME280;69059;52.218;5.172;2023-04-25T00:13:38;99504.94;;;6.81;100.00
65173;BME280;69059;52.218;5.172;2023-04-25T00:16:08;99497.50;;;6.78;100.00
65173;BME280;69059;52.218;5.172;2023-04-25T00:18:36;99499.84;;;6.73;100.00
65173;BME280;69059;52.218;5.172;2023-04-25T00:21:04;99501.03;;;6.71;100.00
65173;BME280;69059;52.218;5.172;2023-04-25T00:23:32;99509.22;;;6.74;100.00
65173;BME280;69059;52.218;5.172;2023-04-25T00:26:02;99512.94;;;6.65;100.00
65173;BME280;69059;52.218;5.172;2023-04-25T00:28:31;99516.53;;;6.64;100.00
65173;BME280;69059;52.218;5.172;2023-04-25T00:30:59;99519.91;;;6.65;100.00
65173;BME280;69059;52.218;5.172;2023-04-25T00:33:27;99522.06;;;6.61;100.00
65173;BME280;69059;52.218;5.172;2023-04-25T00:35:55;99532.84;;;6.58;100.00
65173;BME280;69059;52.218;5.172;2023-04-25T00:38:23;99535.78;;;6.55;100.00
65173;BME280;69059;52.218;5.172;2023-04-25T00:40:51;99535.69;;;6.48;100.00
65173;BME280;69059;52.218;5.172;2023-04-25T00:43:19;99539.66;;;6.44;100.00
65173;BME280;69059;52.218;5.172;2023-04-25T00:45:48;99547.34;;;6.38;100.00
65173;BME280;69059;52.218;5.172;2023-04-25T00:48:19;99545.75;;;6.37;100.00
65173;BME280;69059;52.218;5.172;2023-04-25T00:50:51;99546.47;;;6.31;100.00
65173;BME280;69059;52.218;5.172;2023-04-25T00:53:20;99551.41;;;6.26;100.00
65173;BME280;69059;52.218;5.172;2023-04-25T00:55:48;99541.31;;;6.16;100.00
65173;BME280;69059;52.218;5.172;2023-04-25T00:58:17;99537.56;;;6.19;100.00
65173;BME280;69059;52.218;5.172;2023-04-25T01:00:45;99554.91;;;6.18;100.00
65173;BME280;69059;52.218;5.172;2023-04-25T01:03:15;99566.31;;;6.09;100.00
65173;BME280;69059;52.218;5.172;2023-04-25T01:05:43;99569.81;;;6.01;100.00
65173;BME280;69059;52.218;5.172;2023-04-25T01:08:13;99570.19;;;5.98;100.00
65173;BME280;69059;52.218;5.172;2023-04-25T01:10:40;99568.41;;;5.99;100.00
65173;BME280;69059;52.218;5.172;2023-04-25T01:13:08;99579.66;;;5.91;100.00
65173;BME280;69059;52.218;5.172;2023-04-25T01:15:36;99578.84;;;5.91;100.00
65173;BME280;69059;52.218;5.172;2023-04-25T01:18:05;99575.16;;;5.85;100.00
65173;BME280;69059;52.218;5.172;2023-04-25T01:20:34;99583.91;;;5.84;100.00
65173;BME280;69059;52.218;5.172;2023-04-25T01:23:06;99592.56;;;5.76;100.00
65173;BME280;69059;52.218;5.172;2023-04-25T01:25:33;99595.03;;;5.70;100.00
65173;BME280;69059;52.218;5.172;2023-04-25T01:28:01;99602.03;;;5.69;100.00
65173;BME280;69059;52.218;5.172;2023-04-25T01:30:29;99600.59;;;5.67;100.00
65173;BME280;69059;52.218;5.172;2023-04-25T01:32:57;99601.09;;;5.62;100.00
65173;BME280;69059;52.218;5.172;2023-04-25T01:35:26;99602.91;;;5.62;100.00
65173;BME280;69059;52.218;5.172;2023-04-25T01:37:54;99603.06;;;5.60;100.00
65173;BME280;69059;52.218;5.172;2023-04-25T01:40:24;99606.53;;;5.53;100.00
65173;BME280;69059;52.218;5.172;2023-04-25T01:42:52;99596.25;;;5.45;100.00
65173;BME280;69059;52.218;5.172;2023-04-25T01:45:20;99603.03;;;5.46;100.00
65173;BME280;69059;52.218;5.172;2023-04-25T01:47:48;99586.31;;;5.33;100.00
65173;BME280;69059;52.218;5.172;2023-04-25T01:50:17;99612.22;;;5.48;100.00
65173;BME280;69059;52.218;5.172;2023-04-25T01:52:45;99611.16;;;5.43;100.00
65173;BME280;69059;52.218;5.172;2023-04-25T01:55:12;99614.34;;;5.30;100.00
65173;BME280;69059;52.218;5.172;2023-04-25T01:57:41;99624.97;;;5.35;100.00
65173;BME280;69059;52.218;5.172;2023-04-25T02:00:10;99632.88;;;5.33;100.00
65173;BME280;69059;52.218;5.172;2023-04-25T02:02:38;99631.34;;;5.24;100.00
65173;BME280;69059;52.218;5.172;2023-04-25T02:05:07;99633.78;;;5.26;100.00
65173;BME280;69059;52.218;5.172;2023-04-25T02:07:35;99633.94;;;5.24;100.00
65173;BME280;69059;52.218;5.172;2023-04-25T02:10:03;99628.28;;;5.21;100.00
65173;BME280;69059;52.218;5.172;2023-04-25T02:12:31;99632.88;;;5.19;100.00
65173;BME280;69059;52.218;5.172;2023-04-25T02:15:00;99641.13;;;5.14;100.00
65173;BME280;69059;52.218;5.172;2023-04-25T02:17:27;99643.25;;;5.11;100.00
65173;BME280;69059;52.218;5.172;2023-04-25T02:19:55;99632.41;;;5.15;100.00
65173;BME280;69059;52.218;5.172;2023-04-25T02:22:23;99629.63;;;4.94;100.00
65173;BME280;69059;52.218;5.172;2023-04-25T02:24:50;99640.75;;;4.94;100.00
65173;BME280;69059;52.218;5.172;2023-04-25T02:27:18;99633.84;;;4.87;100.00
65173;BME280;69059;52.218;5.172;2023-04-25T02:29:46;99613.09;;;4.95;100.00
65173;BME280;69059;52.218;5.172;2023-04-25T02:32:15;99599.16;;;5.04;100.00
65173;BME280;69059;52.218;5.172;2023-04-25T02:34:42;99604.38;;;4.96;100.00
65173;BME280;69059;52.218;5.172;2023-04-25T02:37:10;99588.19;;;5.02;100.00
65173;BME280;69059;52.218;5.172;2023-04-25T02:39:38;99588.44;;;5.07;100.00
65173;BME280;69059;52.218;5.172;2023-04-25T02:42:06;99586.56;;;5.01;100.00
65173;BME280;69059;52.218;5.172;2023-04-25T02:44:33;99575.25;;;5.02;100.00
65173;BME280;69059;52.218;5.172;2023-04-25T02:47:01;99578.88;;;5.16;100.00
65173;BME280;69059;52.218;5.172;2023-04-25T02:49:30;99567.53;;;5.17;100.00
65173;BME280;69059;52.218;5.172;2023-04-25T02:51:58;99574.59;;;5.23;100.00
65173;BME280;69059;52.218;5.172;2023-04-25T02:54:26;99579.78;;;5.00;100.00
65173;BME280;69059;52.218;5.172;2023-04-25T02:56:53;99574.44;;;5.01;100.00
65173;BME280;69059;52.218;5.172;2023-04-25T02:59:21;99570.63;;;5.12;100.00
65173;BME280;69059;52.218;5.172;2023-04-25T03:01:49;99570.56;;;5.20;100.00
65173;BME280;69059;52.218;5.172;2023-04-25T03:04:16;99561.66;;;5.23;100.00
65173;BME280;69059;52.218;5.172;2023-04-25T03:06:46;99566.81;;;5.23;100.00
65173;BME280;69059;52.218;5.172;2023-04-25T03:09:14;99570.84;;;5.25;100.00
65173;BME280;69059;52.218;5.172;2023-04-25T03:11:43;99579.72;;;5.31;100.00
65173;BME280;69059;52.218;5.172;2023-04-25T03:14:11;99585.50;;;5.33;100.00
65173;BME280;69059;52.218;5.172;2023-04-25T03:16:39;99585.41;;;5.26;100.00
65173;BME280;69059;52.218;5.172;2023-04-25T03:19:07;99580.53;;;5.31;100.00
65173;BME280;69059;52.218;5.172;2023-04-25T03:21:35;99591.72;;;5.24;100.00
65173;BME280;69059;52.218;5.172;2023-04-25T03:24:05;99594.78;;;5.27;100.00
65173;BME280;69059;52.218;5.172;2023-04-25T03:26:33;99596.25;;;5.22;100.00
65173;BME280;69059;52.218;5.172;2023-04-25T03:29:00;99600.69;;;5.36;100.00
65173;BME280;69059;52.218;5.172;2023-04-25T03:31:29;99589.81;;;5.40;100.00
65173;BME280;69059;52.218;5.172;2023-04-25T03:33:56;99593.03;;;5.43;100.00
65173;BME280;69059;52.218;5.172;2023-04-25T03:36:24;99597.03;;;5.45;100.00
65173;BME280;69059;52.218;5.172;2023-04-25T03:38:52;99596.53;;;5.50;100.00
65173;BME280;69059;52.218;5.172;2023-04-25T03:41:21;99599.47;;;5.47;100.00
65173;BME280;69059;52.218;5.172;2023-04-25T03:43:49;99595.47;;;5.44;100.00
65173;BME280;69059;52.218;5.172;2023-04-25T03:46:17;99594.75;;;5.50;100.00
65173;BME280;69059;52.218;5.172;2023-04-25T03:48:45;99599.63;;;5.45;100.00
65173;BME280;69059;52.218;5.172;2023-04-25T03:51:12;99600.81;;;5.43;100.00
65173;BME280;69059;52.218;5.172;2023-04-25T03:53:40;99611.50;;;5.39;100.00
65173;BME280;69059;52.218;5.172;2023-04-25T03:56:08;99614.91;;;5.40;100.00
65173;BME280;69059;52.218;5.172;2023-04-25T03:58:37;99627.84;;;5.40;100.00
65173;BME280;69059;52.218;5.172;2023-04-25T04:01:05;99639.16;;;5.39;100.00
65173;BME280;69059;52.218;5.172;2023-04-25T04:03:34;99654.41;;;5.34;100.00
65173;BME280;69059;52.218;5.172;2023-04-25T04:06:03;99660.78;;;5.23;100.00
65173;BME280;69059;52.218;5.172;2023-04-25T04:08:31;99673.50;;;5.33;100.00
65173;BME280;69059;52.218;5.172;2023-04-25T04:10:59;99667.75;;;5.23;100.00
65173;BME280;69059;52.218;5.172;2023-04-25T04:13:28;99680.81;;;5.29;100.00
65173;BME280;69059;52.218;5.172;2023-04-25T04:15:57;99690.38;;;5.29;100.00
65173;BME280;69059;52.218;5.172;2023-04-25T04:18:25;99680.03;;;5.21;100.00
65173;BME280;69059;52.218;5.172;2023-04-25T04:20:53;99695.00;;;5.33;100.00
65173;BME280;69059;52.218;5.172;2023-04-25T04:23:21;99701.63;;;5.36;100.00
65173;BME280;69059;52.218;5.172;2023-04-25T04:25:49;99699.84;;;5.36;100.00
65173;BME280;69059;52.218;5.172;2023-04-25T04:28:16;99709.88;;;5.39;100.00
65173;BME280;69059;52.218;5.172;2023-04-25T04:30:44;99699.03;;;5.36;100.00
65173;BME280;69059;52.218;5.172;2023-04-25T04:33:14;99702.19;;;5.46;100.00
65173;BME280;69059;52.218;5.172;2023-04-25T04:35:42;99709.34;;;5.44;100.00
65173;BME280;69059;52.218;5.172;2023-04-25T04:38:10;99712.91;;;5.43;100.00
65173;BME280;69059;52.218;5.172;2023-04-25T04:40:38;99721.13;;;5.24;100.00
65173;BME280;69059;52.218;5.172;2023-04-25T04:43:05;99720.28;;;5.31;100.00
65173;BME280;69059;52.218;5.172;2023-04-25T04:45:35;99722.00;;;5.39;100.00
65173;BME280;69059;52.218;5.172;2023-04-25T04:48:03;99718.91;;;5.44;100.00
65173;BME280;69059;52.218;5.172;2023-04-25T04:50:33;99721.28;;;5.45;100.00
65173;BME280;69059;52.218;5.172;2023-04-25T04:53:02;99730.91;;;5.36;100.00
65173;BME280;69059;52.218;5.172;2023-04-25T04:55:29;99727.75;;;5.49;100.00
65173;BME280;69059;52.218;5.172;2023-04-25T04:57:57;99741.88;;;5.16;100.00
65173;BME280;69059;52.218;5.172;2023-04-25T05:00:25;99722.88;;;5.31;100.00
65173;BME280;69059;52.218;5.172;2023-04-25T05:02:55;99735.56;;;5.41;100.00
65173;BME280;69059;52.218;5.172;2023-04-25T05:05:23;99737.63;;;5.46;100.00
65173;BME280;69059;52.218;5.172;2023-04-25T05:07:52;99742.94;;;5.52;100.00
65173;BME280;69059;52.218;5.172;2023-04-25T05:10:20;99755.72;;;5.54;100.00
65173;BME280;69059;52.218;5.172;2023-04-25T05:12:47;99755.81;;;5.37;100.00
65173;BME280;69059;52.218;5.172;2023-04-25T05:15:16;99787.34;;;5.41;100.00
65173;BME280;69059;52.218;5.172;2023-04-25T05:17:43;99796.13;;;5.63;100.00
65173;BME280;69059;52.218;5.172;2023-04-25T05:20:11;99800.44;;;5.70;100.00
65173;BME280;69059;52.218;5.172;2023-04-25T05:22:40;99805.56;;;5.79;100.00
65173;BME280;69059;52.218;5.172;2023-04-25T05:25:10;99801.84;;;5.81;100.00
65173;BME280;69059;52.218;5.172;2023-04-25T05:27:38;99812.38;;;5.80;100.00
65173;BME280;69059;52.218;5.172;2023-04-25T05:30:07;99826.91;;;5.89;100.00
65173;BME280;69059;52.218;5.172;2023-04-25T05:32:35;99825.41;;;5.94;100.00
65173;BME280;69059;52.218;5.172;2023-04-25T05:35:03;99812.25;;;5.96;100.00
65173;BME280;69059;52.218;5.172;2023-04-25T05:37:33;99829.44;;;5.97;100.00
65173;BME280;69059;52.218;5.172;2023-04-25T05:40:02;99836.69;;;6.01;100.00
65173;BME280;69059;52.218;5.172;2023-04-25T05:42:34;99837.09;;;6.13;100.00
65173;BME280;69059;52.218;5.172;2023-04-25T05:45:02;99799.16;;;5.97;100.00
65173;BME280;69059;52.218;5.172;2023-04-25T05:47:30;99847.34;;;6.29;100.00
65173;BME280;69059;52.218;5.172;2023-04-25T05:49:58;99852.78;;;6.34;100.00
65173;BME280;69059;52.218;5.172;2023-04-25T05:52:26;99858.44;;;6.38;100.00
65173;BME280;69059;52.218;5.172;2023-04-25T05:54:53;99863.38;;;6.33;100.00
65173;BME280;69059;52.218;5.172;2023-04-25T05:57:22;99867.84;;;6.39;100.00
65173;BME280;69059;52.218;5.172;2023-04-25T05:59:52;99865.72;;;6.42;100.00
65173;BME280;69059;52.218;5.172;2023-04-25T06:02:20;99873.31;;;6.44;100.00
65173;BME280;69059;52.218;5.172;2023-04-25T06:04:49;99879.31;;;6.59;100.00
65173;BME280;69059;52.218;5.172;2023-04-25T06:07:18;99881.22;;;6.65;100.00
65173;BME280;69059;52.218;5.172;2023-04-25T06:09:46;99875.72;;;6.23;100.00
65173;BME280;69059;52.218;5.172;2023-04-25T06:12:13;99918.66;;;6.25;100.00
65173;BME280;69059;52.218;5.172;2023-04-25T06:14:41;99927.47;;;6.39;100.00
65173;BME280;69059;52.218;5.172;2023-04-25T06:17:10;99939.97;;;6.35;100.00
65173;BME280;69059;52.218;5.172;2023-04-25T06:19:38;99909.16;;;6.18;100.00
65173;BME280;69059;52.218;5.172;2023-04-25T06:22:07;99952.75;;;6.37;100.00
65173;BME280;69059;52.218;5.172;2023-04-25T06:24:35;99944.28;;;6.20;100.00
65173;BME280;69059;52.218;5.172;2023-04-25T06:27:03;99960.59;;;6.29;100.00
65173;BME280;69059;52.218;5.172;2023-04-25T06:29:31;99962.22;;;6.30;100.00
65173;BME280;69059;52.218;5.172;2023-04-25T06:31:59;99960.75;;;6.27;100.00
65173;BME280;69059;52.218;5.172;2023-04-25T06:34:28;99956.50;;;6.34;100.00
65173;BME280;69059;52.218;5.172;2023-04-25T06:36:56;99961.97;;;6.39;100.00
65173;BME280;69059;52.218;5.172;2023-04-25T06:39:24;99959.22;;;6.41;100.00
65173;BME280;69059;52.218;5.172;2023-04-25T06:41:52;99962.63;;;6.41;100.00
65173;BME280;69059;52.218;5.172;2023-04-25T06:44:19;99976.31;;;6.50;100.00
65173;BME280;69059;52.218;5.172;2023-04-25T06:46:49;99971.72;;;6.60;100.00
65173;BME280;69059;52.218;5.172;2023-04-25T06:49:17;99970.50;;;6.94;100.00
65173;BME280;69059;52.218;5.172;2023-04-25T06:51:46;99948.53;;;7.19;100.00
65173;BME280;69059;52.218;5.172;2023-04-25T06:54:14;99951.84;;;7.42;100.00
65173;BME280;69059;52.218;5.172;2023-04-25T06:56:42;99951.47;;;7.60;100.00
65173;BME280;69059;52.218;5.172;2023-04-25T06:59:09;99955.31;;;7.79;100.00
65173;BME280;69059;52.218;5.172;2023-04-25T07:01:37;99950.56;;;7.97;100.00
65173;BME280;69059;52.218;5.172;2023-04-25T07:04:05;99953.63;;;8.22;100.00
65173;BME280;69059;52.218;5.172;2023-04-25T07:06:33;99962.19;;;8.37;100.00
65173;BME280;69059;52.218;5.172;2023-04-25T07:09:05;99974.03;;;8.40;100.00
65173;BME280;69059;52.218;5.172;2023-04-25T07:11:33;99984.25;;;8.41;100.00
65173;BME280;69059;52.218;5.172;2023-04-25T07:14:01;100003.22;;;8.56;100.00
65173;BME280;69059;52.218;5.172;2023-04-25T07:16:29;99998.59;;;8.73;100.00
65173;BME280;69059;52.218;5.172;2023-04-25T07:18:57;100025.97;;;8.90;100.00
65173;BME280;69059;52.218;5.172;2023-04-25T07:21:25;100054.59;;;8.90;100.00
65173;BME280;69059;52.218;5.172;2023-04-25T07:23:53;100092.78;;;8.83;100.00
65173;BME280;69059;52.218;5.172;2023-04-25T07:26:22;100120.69;;;8.75;100.00
65173;BME280;69059;52.218;5.172;2023-04-25T07:28:50;100142.16;;;8.77;100.00
65173;BME280;69059;52.218;5.172;2023-04-25T07:31:18;100106.28;;;8.72;100.00
65173;BME280;69059;52.218;5.172;2023-04-25T07:33:46;100150.44;;;9.02;100.00
65173;BME280;69059;52.218;5.172;2023-04-25T07:36:14;100153.34;;;9.13;100.00
65173;BME280;69059;52.218;5.172;2023-04-25T07:38:42;100158.47;;;9.21;100.00
65173;BME280;69059;52.218;5.172;2023-04-25T07:41:10;100173.16;;;9.29;100.00
65173;BME280;69059;52.218;5.172;2023-04-25T07:43:39;100182.41;;;9.31;100.00
65173;BME280;69059;52.218;5.172;2023-04-25T07:46:07;100207.91;;;9.36;100.00
65173;BME280;69059;52.218;5.172;2023-04-25T07:48:35;100191.41;;;9.72;100.00
65173;BME280;69059;52.218;5.172;2023-04-25T07:51:02;100208.06;;;9.98;100.00
65173;BME280;69059;52.218;5.172;2023-04-25T07:53:31;100243.97;;;10.03;100.00
65173;BME280;69059;52.218;5.172;2023-04-25T07:56:01;100298.75;;;10.03;100.00
65173;BME280;69059;52.218;5.172;2023-04-25T07:58:28;100350.59;;;9.91;100.00
65173;BME280;69059;52.218;5.172;2023-04-25T08:00:58;100414.06;;;9.18;100.00
65173;BME280;69059;52.218;5.172;2023-04-25T08:03:26;100398.78;;;9.15;100.00
65173;BME280;69059;52.218;5.172;2023-04-25T08:05:54;100380.13;;;9.12;100.00
65173;BME280;69059;52.218;5.172;2023-04-25T08:08:22;100387.47;;;9.08;100.00
65173;BME280;69059;52.218;5.172;2023-04-25T08:10:49;100401.94;;;9.11;100.00
65173;BME280;69059;52.218;5.172;2023-04-25T08:13:17;100391.41;;;9.04;100.00
65173;BME280;69059;52.218;5.172;2023-04-25T08:15:45;100375.97;;;9.17;100.00
65173;BME280;69059;52.218;5.172;2023-04-25T08:18:14;100350.25;;;9.58;100.00
65173;BME280;69059;52.218;5.172;2023-04-25T08:20:43;100348.84;;;9.77;100.00
65173;BME280;69059;52.218;5.172;2023-04-25T08:23:11;100344.56;;;9.91;100.00
65173;BME280;69059;52.218;5.172;2023-04-25T08:25:39;100332.97;;;9.93;100.00
65173;BME280;69059;52.218;5.172;2023-04-25T08:28:07;100345.47;;;10.68;100.00
65173;BME280;69059;52.218;5.172;2023-04-25T08:30:37;100319.34;;;11.44;100.00
65173;BME280;69059;52.218;5.172;2023-04-25T08:33:04;100316.31;;;12.41;100.00
65173;BME280;69059;52.218;5.172;2023-04-25T08:35:34;100375.88;;;12.85;100.00
65173;BME280;69059;52.218;5.172;2023-04-25T08:38:02;100418.81;;;12.90;100.00
65173;BME280;69059;52.218;5.172;2023-04-25T08:40:34;100485.91;;;12.85;100.00
65173;BME280;69059;52.218;5.172;2023-04-25T08:43:03;100566.13;;;11.77;100.00
65173;BME280;69059;52.218;5.172;2023-04-25T08:45:32;100632.53;;;11.34;100.00
65173;BME280;69059;52.218;5.172;2023-04-25T08:48:00;100614.75;;;11.23;100.00
65173;BME280;69059;52.218;5.172;2023-04-25T08:50:29;100610.03;;;12.23;100.00
65173;BME280;69059;52.218;5.172;2023-04-25T08:53:00;100629.09;;;13.32;100.00
65173;BME280;69059;52.218;5.172;2023-04-25T08:55:31;100707.97;;;14.23;100.00
65173;BME280;69059;52.218;5.172;2023-04-25T08:57:59;100757.75;;;14.89;100.00
65173;BME280;69059;52.218;5.172;2023-04-25T09:00:28;100918.78;;;15.35;100.00
65173;BME280;69059;52.218;5.172;2023-04-25T09:02:57;101126.78;;;15.21;100.00
65173;BME280;69059;52.218;5.172;2023-04-25T09:05:26;101139.94;;;14.94;100.00
65173;BME280;69059;52.218;5.172;2023-04-25T09:07:55;101129.50;;;14.19;100.00
65173;BME280;69059;52.218;5.172;2023-04-25T09:10:25;101140.34;;;13.75;100.00
65173;BME280;69059;52.218;5.172;2023-04-25T09:13:04;101113.34;;;13.53;100.00
65173;BME280;69059;52.218;5.172;2023-04-25T09:15:33;101093.72;;;13.21;100.00
65173;BME280;69059;52.218;5.172;2023-04-25T09:18:00;101107.16;;;12.75;100.00
65173;BME280;69059;52.218;5.172;2023-04-25T09:20:29;101061.53;;;12.12;100.00
65173;BME280;69059;52.218;5.172;2023-04-25T09:23:03;101006.50;;;11.62;100.00
65173;BME280;69059;52.218;5.172;2023-04-25T09:25:37;100917.41;;;11.19;100.00
65173;BME280;69059;52.218;5.172;2023-04-25T09:28:06;100854.25;;;10.86;100.00
65173;BME280;69059;52.218;5.172;2023-04-25T09:30:36;100806.72;;;10.76;100.00
65173;BME280;69059;52.218;5.172;2023-04-25T09:33:05;100729.78;;;10.78;100.00
65173;BME280;69059;52.218;5.172;2023-04-25T09:35:36;100702.03;;;10.92;100.00
65173;BME280;69059;52.218;5.172;2023-04-25T09:38:09;100705.88;;;11.11;100.00
65173;BME280;69059;52.218;5.172;2023-04-25T09:40:43;100720.63;;;11.19;100.00
65173;BME280;69059;52.218;5.172;2023-04-25T09:43:19;100691.16;;;11.46;100.00
65173;BME280;69059;52.218;5.172;2023-04-25T09:45:48;100703.56;;;11.65;100.00
65173;BME280;69059;52.218;5.172;2023-04-25T09:48:18;100789.59;;;11.75;100.00
65173;BME280;69059;52.218;5.172;2023-04-25T09:51:03;100836.38;;;11.84;100.00
65173;BME280;69059;52.218;5.172;2023-04-25T09:53:32;100806.00;;;12.33;100.00
65173;BME280;69059;52.218;5.172;2023-04-25T09:56:03;100866.59;;;12.57;100.00
65173;BME280;69059;52.218;5.172;2023-04-25T09:58:33;100932.16;;;12.64;100.00
65173;BME280;69059;52.218;5.172;2023-04-25T10:01:02;100966.50;;;12.33;100.00
65173;BME280;69059;52.218;5.172;2023-04-25T10:03:31;100926.44;;;12.82;100.00
65173;BME280;69059;52.218;5.172;2023-04-25T10:06:00;100918.03;;;13.55;100.00
65173;BME280;69059;52.218;5.172;2023-04-25T10:08:31;100985.16;;;13.84;100.00
65173;BME280;69059;52.218;5.172;2023-04-25T10:11:02;101001.91;;;14.31;100.00
65173;BME280;69059;52.218;5.172;2023-04-25T10:13:32;101085.31;;;14.29;100.00
65173;BME280;69059;52.218;5.172;2023-04-25T10:16:01;101261.94;;;14.10;100.00
65173;BME280;69059;52.218;5.172;2023-04-25T10:18:30;101231.88;;;13.63;100.00
65173;BME280;69059;52.218;5.172;2023-04-25T10:21:00;101159.31;;;14.39;100.00
65173;BME280;69059;52.218;5.172;2023-04-25T10:23:30;101206.88;;;14.23;100.00
65173;BME280;69059;52.218;5.172;2023-04-25T10:25:58;101196.53;;;14.43;100.00
65173;BME280;69059;52.218;5.172;2023-04-25T10:28:27;101204.09;;;15.33;100.00
65173;BME280;69059;52.218;5.172;2023-04-25T10:30:59;101278.06;;;15.64;100.00
65173;BME280;69059;52.218;5.172;2023-04-25T10:33:32;101306.44;;;16.28;100.00
65173;BME280;69059;52.218;5.172;2023-04-25T10:36:09;101315.34;;;16.34;100.00
65173;BME280;69059;52.218;5.172;2023-04-25T10:38:37;101412.88;;;14.56;100.00
65173;BME280;69059;52.218;5.172;2023-04-25T10:41:06;101312.03;;;14.36;100.00
65173;BME280;69059;52.218;5.172;2023-04-25T10:43:38;101265.00;;;14.13;100.00
65173;BME280;69059;52.218;5.172;2023-04-25T10:46:15;101155.75;;;13.84;100.00
65173;BME280;69059;52.218;5.172;2023-04-25T10:48:47;101123.03;;;14.21;100.00
65173;BME280;69059;52.218;5.172;2023-04-25T10:51:17;101168.38;;;14.37;100.00
65173;BME280;69059;52.218;5.172;2023-04-25T10:53:46;101202.06;;;13.98;100.00
65173;BME280;69059;52.218;5.172;2023-04-25T10:56:17;101183.94;;;13.26;100.00
65173;BME280;69059;52.218;5.172;2023-04-25T10:58:47;101139.59;;;12.74;100.00
65173;BME280;69059;52.218;5.172;2023-04-25T11:01:20;101114.50;;;12.14;100.00
65173;BME280;69059;52.218;5.172;2023-04-25T11:03:48;101088.56;;;12.05;100.00
65173;BME280;69059;52.218;5.172;2023-04-25T11:06:23;101073.09;;;11.89;100.00
65173;BME280;69059;52.218;5.172;2023-04-25T11:08:51;100992.53;;;11.84;100.00
65173;BME280;69059;52.218;5.172;2023-04-25T11:11:19;100999.88;;;12.10;100.00
65173;BME280;69059;52.218;5.172;2023-04-25T11:13:49;100945.50;;;12.48;100.00
65173;BME280;69059;52.218;5.172;2023-04-25T11:16:17;100925.00;;;13.07;100.00
65173;BME280;69059;52.218;5.172;2023-04-25T11:18:57;101023.44;;;13.72;100.00
65173;BME280;69059;52.218;5.172;2023-04-25T11:21:25;101046.22;;;14.60;100.00
65173;BME280;69059;52.218;5.172;2023-04-25T11:23:54;101079.66;;;15.59;100.00
65173;BME280;69059;52.218;5.172;2023-04-25T11:26:22;101197.50;;;16.61;100.00
65173;BME280;69059;52.218;5.172;2023-04-25T11:28:51;101300.97;;;17.21;100.00
65173;BME280;69059;52.218;5.172;2023-04-25T11:31:20;101349.84;;;17.99;100.00
65173;BME280;69059;52.218;5.172;2023-04-25T11:33:48;101386.53;;;17.38;100.00
65173;BME280;69059;52.218;5.172;2023-04-25T11:36:18;101378.97;;;16.90;100.00
65173;BME280;69059;52.218;5.172;2023-04-25T11:38:46;101376.56;;;16.56;100.00
65173;BME280;69059;52.218;5.172;2023-04-25T11:41:14;101345.91;;;15.69;100.00
65173;BME280;69059;52.218;5.172;2023-04-25T11:43:43;101303.63;;;15.16;100.00
65173;BME280;69059;52.218;5.172;2023-04-25T11:46:13;101168.91;;;12.19;100.00
65173;BME280;69059;52.218;5.172;2023-04-25T11:48:41;101022.53;;;12.53;100.00
65173;BME280;69059;52.218;5.172;2023-04-25T11:51:09;101135.97;;;11.95;100.00
65173;BME280;69059;52.218;5.172;2023-04-25T11:53:40;101002.03;;;12.42;100.00
65173;BME280;69059;52.218;5.172;2023-04-25T11:56:09;100952.78;;;12.74;100.00
65173;BME280;69059;52.218;5.172;2023-04-25T11:58:54;100979.97;;;12.30;100.00
65173;BME280;69059;52.218;5.172;2023-04-25T12:01:28;101080.19;;;11.95;100.00
65173;BME280;69059;52.218;5.172;2023-04-25T12:04:10;100973.81;;;12.59;100.00
65173;BME280;69059;52.218;5.172;2023-04-25T12:06:40;100968.81;;;12.64;100.00
65173;BME280;69059;52.218;5.172;2023-04-25T12:09:09;100996.31;;;12.75;100.00
65173;BME280;69059;52.218;5.172;2023-04-25T12:11:41;100974.69;;;12.94;100.00
65173;BME280;69059;52.218;5.172;2023-04-25T12:14:09;101092.13;;;12.63;100.00
65173;BME280;69059;52.218;5.172;2023-04-25T12:16:42;101020.06;;;12.95;100.00
65173;BME280;69059;52.218;5.172;2023-04-25T12:19:13;101064.53;;;13.09;100.00
65173;BME280;69059;52.218;5.172;2023-04-25T12:21:41;101045.53;;;13.50;100.00
65173;BME280;69059;52.218;5.172;2023-04-25T12:24:17;101078.16;;;14.10;100.00
65173;BME280;69059;52.218;5.172;2023-04-25T12:26:49;101134.69;;;14.40;100.00
65173;BME280;69059;52.218;5.172;2023-04-25T12:29:19;101227.78;;;14.38;100.00
65173;BME280;69059;52.218;5.172;2023-04-25T12:31:50;101288.97;;;14.94;100.00
65173;BME280;69059;52.218;5.172;2023-04-25T12:34:18;101322.19;;;15.56;100.00
65173;BME280;69059;52.218;5.172;2023-04-25T12:36:46;101503.75;;;16.84;100.00
65173;BME280;69059;52.218;5.172;2023-04-25T12:39:15;101446.50;;;17.82;100.00
65173;BME280;69059;52.218;5.172;2023-04-25T12:41:43;101445.69;;;18.13;100.00
65173;BME280;69059;52.218;5.172;2023-04-25T12:44:12;101510.38;;;18.10;100.00
65173;BME280;69059;52.218;5.172;2023-04-25T12:46:40;101505.09;;;17.39;100.00
65173;BME280;69059;52.218;5.172;2023-04-25T12:49:09;101547.59;;;16.24;100.00
65173;BME280;69059;52.218;5.172;2023-04-25T12:51:42;101468.66;;;15.49;100.00
65173;BME280;69059;52.218;5.172;2023-04-25T12:54:10;101465.16;;;15.00;100.00
65173;BME280;69059;52.218;5.172;2023-04-25T12:56:38;101431.03;;;14.58;100.00
65173;BME280;69059;52.218;5.172;2023-04-25T12:59:06;101429.53;;;14.42;100.00
65173;BME280;69059;52.218;5.172;2023-04-25T13:01:34;101416.50;;;14.55;100.00